»·PEaware :: AAL241 KAUS-KDFW

AAL241 :: KAUS-KDFW

FLIGHT INFORMATION

Flight Status: Arrived
Operator:
American Airlines
More flights by this operator :: More flights under this callsign
Pilot: Drew Leevy (13237)
Aircraft: AIRBUS A320
(A320)
More flights by this aircraft type
Origin: KAUS Austin Bergstrom Intl
United States
Destination: KDFW Dallas-Ft Worth Intl
United States
More flights between these airports :: More routes between these airports
Route: ELOEL1 FORSS GUTTZ BOOVE4
File this flight plan on PilotEdge
Remarks: / L
Altitude:
(Current/Filed)
23,000ft
Speed:
(Current/Filed)
115kts
Departed: 09-Dec-16 08:16 PM
Arrived: 09-Dec-16 08:59 PM
Distance/Time
Traveled:
1nm/0:42
Distance/Time
To Go:
Arrived

Flight Plot

Page will automatically refresh every two minutes.

Flight plan parsing failed; only flown route is shown


Map Options




Map Legend


Flown Route
Filed Route
Departure Airport
Arrival Airport
Navaid (VOR, NDB)
Fix

Horizontal Profiles

Position Reports

Time Latitude Longitude Heading Altitude Ground
Speed
09-Dec-16 20:00 30.201329 -97.667578 14 549ft 0kts
09-Dec-16 20:01 30.201309 -97.667584 14 549ft 0kts
09-Dec-16 20:01 30.200508 -97.667831 14 549ft 0kts
09-Dec-16 20:03 30.200508 -97.667831 14 549ft 0kts
09-Dec-16 20:04 30.200529 -97.667812 39 549ft 1kts
09-Dec-16 20:05 30.198435 -97.662453 87 549ft 29kts
09-Dec-16 20:06 30.191393 -97.659593 179 549ft 37kts
09-Dec-16 20:06 30.184059 -97.659432 178 549ft 19kts
09-Dec-16 20:07 30.180152 -97.657211 357 549ft 0kts
09-Dec-16 20:08 30.181530 -97.657260 358 549ft 49kts
09-Dec-16 20:09 30.218268 -97.657722 0 1549ft 171kts
09-Dec-16 20:10 30.268939 -97.673901 333 3805ft 209kts
09-Dec-16 20:11 30.322608 -97.705249 331 6047ft 231kts
09-Dec-16 20:12 30.392409 -97.737012 341 8286ft 281kts
09-Dec-16 20:13 30.470385 -97.765146 343 10245ft 330kts
09-Dec-16 20:14 30.565834 -97.798423 343 12229ft 376kts
09-Dec-16 20:15 30.667791 -97.833806 343 14978ft 392kts
09-Dec-16 20:16 30.761751 -97.877600 342 17180ft 405kts
09-Dec-16 20:17 30.874542 -97.895536 348 19149ft 417kts
09-Dec-16 20:18 30.989003 -97.925243 347 20812ft 427kts
09-Dec-16 20:19 31.110690 -97.957697 347 21002ft 472kts
09-Dec-16 20:20 31.236117 -97.990863 347 20999ft 452kts
09-Dec-16 20:21 31.359163 -98.023184 347 21000ft 452kts
09-Dec-16 20:22 31.481846 -98.055401 347 21001ft 452kts
09-Dec-16 20:23 31.604077 -98.087449 347 21001ft 452kts
09-Dec-16 20:24 31.687370 -98.109302 347 21001ft 452kts
09-Dec-16 20:25 31.810022 -98.141835 347 21001ft 452kts
09-Dec-16 20:26 31.932564 -98.174320 347 21000ft 452kts
09-Dec-16 20:27 32.055091 -98.206789 347 21000ft 452kts
09-Dec-16 20:28 32.177838 -98.239307 347 21001ft 452kts
09-Dec-16 20:29 32.296249 -98.270669 347 19763ft 412kts
09-Dec-16 20:30 32.403923 -98.299190 347 18369ft 390kts
09-Dec-16 20:31 32.509208 -98.316824 17 16996ft 382kts
09-Dec-16 20:32 32.551976 -98.215821 92 15780ft 376kts
09-Dec-16 20:33 32.548551 -98.093311 91 14381ft 368kts
09-Dec-16 20:34 32.547822 -97.973336 86 13099ft 361kts
09-Dec-16 20:35 32.553144 -97.855796 86 12113ft 356kts
09-Dec-16 20:36 32.559127 -97.739017 85 11999ft 346kts
09-Dec-16 20:37 32.565117 -97.636771 86 11996ft 277kts
09-Dec-16 20:38 32.570206 -97.549932 86 11389ft 260kts
09-Dec-16 20:39 32.575252 -97.464982 85 10595ft 257kts
09-Dec-16 20:40 32.580324 -97.380679 85 9797ft 254kts
09-Dec-16 20:41 32.585390 -97.297533 85 9000ft 251kts
09-Dec-16 20:42 32.590442 -97.215622 85 8205ft 248kts
09-Dec-16 20:43 32.595486 -97.134816 85 7141ft 245kts
09-Dec-16 20:44 32.600941 -97.053353 78 5656ft 250kts
09-Dec-16 20:45 32.652054 -97.023572 349 4234ft 226kts
09-Dec-16 20:47 32.707756 -97.026924 359 3941ft 191kts
09-Dec-16 20:48 32.758598 -97.026941 360 3002ft 166kts
09-Dec-16 20:49 32.802756 -97.026685 0 2142ft 155kts
09-Dec-16 20:50 32.845224 -97.026414 0 1310ft 153kts
09-Dec-16 20:51 32.889198 -97.026108 0 614ft 137kts
09-Dec-16 20:52 32.903359 -97.027046 329 614ft 16kts
09-Dec-16 20:53 32.904689 -97.030692 271 614ft 21kts
09-Dec-16 20:54 32.904730 -97.034823 279 614ft 7kts
09-Dec-16 20:55 32.878526 -97.026197 0 667ft 166kts
09-Dec-16 20:56 32.904740 -97.035161 267 614ft 0kts
09-Dec-16 20:57 32.904740 -97.035161 267 614ft 0kts
09-Dec-16 20:58 32.904740 -97.035161 267 614ft 0kts
09-Dec-16 20:59 32.915569 -97.029875 180 618ft 0kts
09-Dec-16 21:00 30.202558 -97.663764 267 553ft 0kts
09-Dec-16 21:01 30.202558 -97.663764 267 553ft 0kts
09-Dec-16 21:02 30.202558 -97.663764 267 553ft 0kts
09-Dec-16 21:02 30.202558 -97.663764 267 553ft 0kts
09-Dec-16 21:03 30.202558 -97.663764 267 553ft 0kts
09-Dec-16 21:04 30.202558 -97.663764 267 553ft 0kts
09-Dec-16 21:05 30.202558 -97.663764 267 553ft 0kts

Navigation Log

Ident Type
Flight plan parsing failed, navigation log unavailable